M I D A S
Marine Information and Data Acquisition System
Tripno 1112 of the Zeeleeuw from 2006-06-08 04:42:34 to 2006-06-08 16:08:28
Back to CruiseResearch ActivitiesStationsMapUnderway DataData graphs

EquipmentUnitsComments
TimeDGPSUTC
LatitudeDGPSDM.mWGS84
LongitudeDGPSDM.mWGS84
SpeedMeteo Stationm/sRelative wind speed
DirectionMeteo StationdegRelative wind direction
TemperatureMeteo Stationdeg CelciusAir temperature
PressureMeteo StationPaAtmospheric pressure
HumidityMeteo Station%Relative humidity
Missing or incorrect values are displayed as -999
Metereological data collected by the RV Zeeleeuw from 2006-06-08 04:41:17 to 2006-06-08 16:13:21
                                                                                    Next 1000 lines
Time Latitude Longitude Speed Direction Temperature Pressure Humidity
2006-06-08 04:41:27 51°13.602 2°56.094 -999 6 11.9 102720 83
2006-06-08 04:41:31 51°13.603 2°56.092 -999 6 11.9 102710 83
2006-06-08 04:41:36 51°13.603 2°56.088 -999 6 11.9 102710 83
2006-06-08 04:41:43 51°13.605 2°56.081 -999 6 11.9 102720 83
2006-06-08 04:41:48 51°13.606 2°56.076 -999 6 11.9 102720 83
2006-06-08 04:41:52 51°13.608 2°56.072 -999 5 11.9 102710 83
2006-06-08 04:41:58 51°13.61 2°56.064 -999 1 11.9 102710 83
2006-06-08 04:42:03 51°13.612 2°56.058 -999 186 11.9 102720 83
2006-06-08 04:42:08 51°13.614 2°56.051 -999 186 11.9 102720 83
2006-06-08 04:42:12 51°13.616 2°56.045 -999 197 11.9 102720 83
2006-06-08 04:42:18 51°13.618 2°56.035 -999 198 11.9 102720 83
2006-06-08 04:42:23 51°13.62 2°56.027 -999 199 11.9 102720 83
2006-06-08 04:42:28 51°13.623 2°56.018 -999 200 11.9 102720 83
2006-06-08 04:42:32 51°13.624 2°56.011 -999 204 11.9 102720 83
2006-06-08 04:42:38 51°13.627 2°56 -999 204 11.9 102720 83
2006-06-08 04:42:43 51°13.629 2°55.991 -999 207 11.9 102720 83
2006-06-08 04:42:48 51°13.631 2°55.982 -999 219 11.9 102720 83
2006-06-08 04:42:52 51°13.632 2°55.975 -999 219 11.9 102720 83
2006-06-08 04:42:58 51°13.635 2°55.964 -999 218 11.9 102720 83
2006-06-08 04:43:03 51°13.637 2°55.956 -999 218 11.9 102720 83
2006-06-08 04:43:08 51°13.639 2°55.948 -999 218 11.9 102720 83
2006-06-08 04:43:12 51°13.641 2°55.941 -999 220 11.9 102720 83
2006-06-08 04:43:18 51°13.643 2°55.932 -999 220 11.9 102720 83
2006-06-08 04:43:23 51°13.646 2°55.924 -999 219 11.9 102720 83
2006-06-08 04:43:28 51°13.648 2°55.916 -999 218 11.9 102720 83
2006-06-08 04:43:33 51°13.651 2°55.909 -999 217 11.9 102720 83
2006-06-08 04:43:38 51°13.654 2°55.901 -999 215 11.9 102720 83
2006-06-08 04:43:43 51°13.656 2°55.894 -999 215 11.9 102720 83
2006-06-08 04:43:48 51°13.659 2°55.887 -999 214 11.9 102720 83
2006-06-08 04:43:53 51°13.662 2°55.88 -999 214 11.9 102720 83
2006-06-08 04:43:58 51°13.665 2°55.873 -999 213 11.9 102720 83
2006-06-08 04:44:02 51°13.668 2°55.867 -999 211 11.9 102720 83
2006-06-08 04:44:08 51°13.671 2°55.859 -999 216 11.9 102720 83
2006-06-08 04:44:13 51°13.674 2°55.851 -999 215 11.9 102720 83
2006-06-08 04:44:18 51°13.677 2°55.844 -999 211 11.9 102720 83
2006-06-08 04:44:23 51°13.681 2°55.837 -999 216 11.9 102720 83
2006-06-08 04:44:28 51°13.684 2°55.83 -999 221 11.9 102720 83
2006-06-08 04:44:32 51°13.687 2°55.824 -999 218 11.9 102720 83
2006-06-08 04:44:38 51°13.691 2°55.815 -999 215 11.9 102720 83
2006-06-08 04:44:43 51°13.694 2°55.808 -999 214 11.9 102720 83
2006-06-08 04:44:48 51°13.697 2°55.801 -999 215 11.9 102720 83
2006-06-08 04:44:52 51°13.7 2°55.796 -999 215 11.9 102720 83
2006-06-08 04:44:58 51°13.703 2°55.789 -999 209 11.9 102720 83
2006-06-08 04:45:03 51°13.706 2°55.782 -999 208 11.9 102720 83
2006-06-08 04:45:07 51°13.707 2°55.778 -999 213 11.9 102720 83
2006-06-08 04:45:12 51°13.71 2°55.773 -999 206 11.9 102730 83
2006-06-08 04:45:17 51°13.711 2°55.769 -999 213 11.9 102730 83
2006-06-08 04:45:22 51°13.713 2°55.765 -999 227 11.9 102720 83
2006-06-08 04:45:27 51°13.714 2°55.763 -999 231 11.9 102720 83
2006-06-08 04:45:32 51°13.715 2°55.762 -999 234 11.9 102720 83
2006-06-08 04:45:37 51°13.715 2°55.762 -999 244 11.9 102720 83
2006-06-08 04:45:42 51°13.715 2°55.764 -999 260 11.9 102720 83
2006-06-08 04:45:47 51°13.716 2°55.767 -999 340 11.9 102720 83
2006-06-08 04:45:52 51°13.716 2°55.77 -999 -999 11.9 102720 83
2006-06-08 04:45:57 51°13.717 2°55.773 -999 1 11.9 102720 83
2006-06-08 04:46:02 51°13.717 2°55.776 -999 4 11.9 102720 83
2006-06-08 04:46:07 51°13.718 2°55.779 -999 3 11.9 102720 83
2006-06-08 04:46:12 51°13.718 2°55.781 -999 4 11.9 102720 83
2006-06-08 04:46:16 51°13.719 2°55.781 -999 4 11.9 102720 83
2006-06-08 04:46:22 51°13.719 2°55.782 -999 11 11.9 102720 83
2006-06-08 04:46:27 51°13.718 2°55.781 -999 19 11.9 102720 83
2006-06-08 04:46:32 51°13.718 2°55.779 -999 26 12 102720 83
2006-06-08 04:46:37 51°13.717 2°55.777 -999 30 12 102720 83
2006-06-08 04:46:42 51°13.716 2°55.775 -999 34 12 102720 83
2006-06-08 04:46:47 51°13.715 2°55.772 -999 160 12 102720 83
2006-06-08 04:46:53 51°13.714 2°55.768 -999 168 12 102720 83
2006-06-08 04:46:58 51°13.712 2°55.764 -999 169 12 102720 83
2006-06-08 04:47:03 51°13.711 2°55.761 -999 169 12 102720 83
2006-06-08 04:47:08 51°13.71 2°55.758 -999 169 12 102720 83
2006-06-08 04:47:12 51°13.709 2°55.755 -999 169 12 102720 83
2006-06-08 04:47:18 51°13.708 2°55.752 -999 168 12 102720 83
2006-06-08 04:47:23 51°13.707 2°55.749 -999 168 12 102720 84
2006-06-08 04:47:28 51°13.706 2°55.748 -999 168 12 102720 84
2006-06-08 04:47:32 51°13.706 2°55.746 -999 164 12 102720 84
2006-06-08 04:47:37 51°13.706 2°55.746 -999 153 12 102720 84
2006-06-08 04:47:43 51°13.706 2°55.745 -999 150 12 102720 84
2006-06-08 04:47:47 51°13.706 2°55.745 -999 145 12 102720 84
2006-06-08 04:47:52 51°13.707 2°55.745 -999 138 12 102720 84
2006-06-08 04:47:56 51°13.707 2°55.745 -999 117 12 102720 84
2006-06-08 04:48:02 51°13.709 2°55.745 -999 93 12 102720 84
2006-06-08 04:48:07 51°13.71 2°55.746 -999 68 12 102720 84
2006-06-08 04:48:12 51°13.711 2°55.747 -999 58 12 102720 84
2006-06-08 04:48:17 51°13.713 2°55.747 -999 53 12 102720 84
2006-06-08 04:48:22 51°13.714 2°55.748 -999 48 12 102720 84
2006-06-08 04:48:27 51°13.716 2°55.749 -999 47 12 102720 84
2006-06-08 04:48:32 51°13.718 2°55.749 -999 47 12.1 102720 84
2006-06-08 04:48:36 51°13.72 2°55.749 -999 47 12.1 102720 84
2006-06-08 04:48:42 51°13.723 2°55.749 -999 47 12.1 102720 84
2006-06-08 04:48:47 51°13.726 2°55.748 -999 47 12.1 102720 84
2006-06-08 04:48:52 51°13.729 2°55.747 -999 42 12.1 102720 84
2006-06-08 04:48:56 51°13.732 2°55.746 -999 45 12.1 102720 84
2006-06-08 04:49:02 51°13.736 2°55.743 -999 39 12.1 102720 84
2006-06-08 04:49:07 51°13.74 2°55.739 -999 28 12.1 102720 84
2006-06-08 04:49:12 51°13.744 2°55.734 -999 23 12.1 102720 84
2006-06-08 04:49:17 51°13.748 2°55.729 -999 21 12.1 102720 84
2006-06-08 04:49:21 51°13.752 2°55.724 -999 18 12.1 102720 84
2006-06-08 04:49:27 51°13.759 2°55.716 -999 18 12.1 102720 84
2006-06-08 04:49:32 51°13.765 2°55.709 -999 17 12.1 102720 84
2006-06-08 04:49:38 51°13.772 2°55.7 -999 9 12.1 102720 84
2006-06-08 04:49:42 51°13.777 2°55.693 -999 9 12.1 102720 84
2006-06-08 04:49:45 51°13.782 2°55.688 -999 16 12.1 102720 84
2006-06-08 04:49:52 51°13.787 2°55.682 -999 10 12.1 102720 84
2006-06-08 04:49:56 51°13.799 2°55.669 -999 11 12.1 102720 84
2006-06-08 04:50:02 51°13.809 2°55.658 -999 13 12.2 102720 84
2006-06-08 04:50:07 51°13.819 2°55.648 -999 7 12.2 102720 84
2006-06-08 04:50:12 51°13.829 2°55.639 -999 9 12.1 102720 84
2006-06-08 04:50:17 51°13.839 2°55.63 -999 15 12.1 102720 84
2006-06-08 04:50:22 51°13.85 2°55.62 -999 12 12.2 102720 84
2006-06-08 04:50:26 51°13.859 2°55.613 -999 16 12.2 102720 84
2006-06-08 04:50:31 51°13.87 2°55.604 -999 18 12.2 102720 84
2006-06-08 04:50:36 51°13.881 2°55.595 -999 13 12.2 102720 84
2006-06-08 04:50:42 51°13.896 2°55.585 -999 19 12.2 102720 84
2006-06-08 04:50:47 51°13.908 2°55.576 -999 19 12.2 102720 84
2006-06-08 04:50:52 51°13.92 2°55.567 -999 15 12.2 102720 84
2006-06-08 04:50:57 51°13.932 2°55.558 -999 13 12.2 102720 84
2006-06-08 04:51:02 51°13.945 2°55.55 -999 15 12.2 102720 84
2006-06-08 04:51:07 51°13.958 2°55.541 -999 17 12.2 102720 84
2006-06-08 04:51:12 51°13.971 2°55.533 -999 20 12.2 102720 84
2006-06-08 04:51:17 51°13.984 2°55.524 -999 18 12.2 102720 84
2006-06-08 04:51:22 51°13.997 2°55.516 -999 22 12.2 102720 84
2006-06-08 04:51:27 51°14.009 2°55.508 -999 21 12.2 102720 84
2006-06-08 04:51:32 51°14.021 2°55.5 -999 19 12.3 102720 84
2006-06-08 04:51:36 51°14.031 2°55.494 -999 18 12.3 102720 84
2006-06-08 04:51:42 51°14.044 2°55.485 -999 16 12.2 102720 84
2006-06-08 04:51:47 51°14.055 2°55.478 -999 22 12.2 102720 84
2006-06-08 04:51:52 51°14.066 2°55.471 -999 18 12.2 102720 83
2006-06-08 04:51:57 51°14.077 2°55.463 -999 19 12.2 102720 83
2006-06-08 04:52:02 51°14.088 2°55.456 -999 22 12.2 102720 83
2006-06-08 04:52:07 51°14.099 2°55.447 -999 23 12.2 102720 83
2006-06-08 04:52:12 51°14.11 2°55.439 -999 22 12.3 102720 83
2006-06-08 04:52:17 51°14.122 2°55.431 -999 24 12.3 102720 83
2006-06-08 04:52:22 51°14.133 2°55.422 -999 27 12.2 102710 83
2006-06-08 04:52:27 51°14.144 2°55.413 -999 25 12.2 102710 83
2006-06-08 04:52:32 51°14.156 2°55.404 -999 20 12.2 102710 83
2006-06-08 04:52:36 51°14.165 2°55.397 -999 19 12.2 102710 83
2006-06-08 04:52:42 51°14.178 2°55.384 -999 22 12.3 102710 83
2006-06-08 04:52:48 51°14.192 2°55.371 -999 25 12.3 102710 83
2006-06-08 04:52:52 51°14.201 2°55.361 -999 23 12.2 102720 83
2006-06-08 04:52:57 51°14.211 2°55.348 -999 26 12.2 102720 83
2006-06-08 04:53:02 51°14.223 2°55.335 -999 29 12.2 102720 83
2006-06-08 04:53:07 51°14.233 2°55.32 -999 29 12.2 102720 83
2006-06-08 04:53:12 51°14.243 2°55.305 -999 23 12.2 102710 83
2006-06-08 04:53:17 51°14.253 2°55.289 -999 23 12.2 102710 83
2006-06-08 04:53:22 51°14.263 2°55.273 -999 22 12.2 102710 83
2006-06-08 04:53:27 51°14.273 2°55.256 -999 21 12.2 102710 83
2006-06-08 04:53:32 51°14.282 2°55.238 -999 21 12.2 102720 82
2006-06-08 04:53:36 51°14.289 2°55.224 -999 16 12.2 102720 82
2006-06-08 04:53:42 51°14.3 2°55.202 -999 17 12.2 102720 82
2006-06-08 04:53:47 51°14.309 2°55.183 -999 14 12.2 102720 82
2006-06-08 04:53:51 51°14.316 2°55.168 -999 15 12.2 102720 82
2006-06-08 04:53:56 51°14.324 2°55.149 -999 8 12.2 102720 82
2006-06-08 04:54:02 51°14.335 2°55.126 -999 15 12.1 102720 82
2006-06-08 04:54:07 51°14.343 2°55.106 -999 11 12.1 102720 82
2006-06-08 04:54:12 51°14.353 2°55.087 -999 12 12.1 102720 82
2006-06-08 04:54:16 51°14.36 2°55.072 -999 15 12.1 102720 82
2006-06-08 04:54:22 51°14.372 2°55.049 -999 16 12.1 102710 83
2006-06-08 04:54:27 51°14.383 2°55.031 -999 14 12.1 102710 83
2006-06-08 04:54:32 51°14.394 2°55.013 -999 16 12.2 102720 83
2006-06-08 04:54:37 51°14.406 2°54.995 -999 22 12.2 102720 83
2006-06-08 04:54:42 51°14.419 2°54.978 -999 22 12.2 102720 83
2006-06-08 04:54:47 51°14.431 2°54.96 -999 22 12.2 102720 83
2006-06-08 04:54:52 51°14.444 2°54.944 -999 21 12.2 102720 83
2006-06-08 04:54:56 51°14.455 2°54.93 -999 19 12.2 102720 83
2006-06-08 04:55:02 51°14.471 2°54.909 -999 18 12.2 102720 83
2006-06-08 04:55:08 51°14.487 2°54.888 -999 17 12.2 102720 83
2006-06-08 04:55:11 51°14.495 2°54.878 -999 18 12.2 102720 84
2006-06-08 04:55:17 51°14.512 2°54.858 -999 18 12.2 102720 84
2006-06-08 04:55:22 51°14.526 2°54.841 -999 19 12.3 102720 84
2006-06-08 04:55:27 51°14.54 2°54.825 -999 17 12.3 102720 84
2006-06-08 04:55:31 51°14.551 2°54.812 -999 15 12.3 102720 84
2006-06-08 04:55:38 51°14.571 2°54.791 -999 19 12.3 102720 84
2006-06-08 04:55:42 51°14.583 2°54.778 -999 15 12.3 102720 84
2006-06-08 04:55:47 51°14.598 2°54.764 -999 20 12.3 102720 84
2006-06-08 04:55:52 51°14.613 2°54.748 -999 19 12.3 102720 84
2006-06-08 04:55:56 51°14.624 2°54.736 -999 19 12.3 102720 84
2006-06-08 04:56:02 51°14.642 2°54.717 -999 16 12.3 102720 84
2006-06-08 04:56:07 51°14.656 2°54.701 -999 18 12.3 102720 84
2006-06-08 04:56:12 51°14.67 2°54.685 -999 17 12.3 102720 84
2006-06-08 04:56:15 51°14.679 2°54.675 -999 15 12.3 102720 84
2006-06-08 04:56:22 51°14.699 2°54.652 -999 18 12.3 102720 84
2006-06-08 04:56:27 51°14.712 2°54.634 -999 16 12.3 102720 84
2006-06-08 04:56:32 51°14.726 2°54.615 -999 17 12.3 102720 84
2006-06-08 04:56:38 51°14.742 2°54.593 -999 16 12.3 102720 84
2006-06-08 04:56:42 51°14.752 2°54.578 -999 16 12.3 102720 84
2006-06-08 04:56:47 51°14.765 2°54.559 -999 14 12.3 102720 84
2006-06-08 04:56:51 51°14.776 2°54.544 -999 16 12.3 102720 84
2006-06-08 04:56:56 51°14.789 2°54.525 -999 15 12.3 102720 84
2006-06-08 04:57:02 51°14.805 2°54.503 -999 15 12.3 102720 84
2006-06-08 04:57:07 51°14.818 2°54.484 -999 17 12.3 102720 84
2006-06-08 04:57:12 51°14.831 2°54.466 -999 16 12.3 102720 84
2006-06-08 04:57:17 51°14.845 2°54.449 -999 17 12.3 102720 84
2006-06-08 04:57:22 51°14.859 2°54.432 -999 16 12.3 102720 84
2006-06-08 04:57:27 51°14.874 2°54.416 -999 15 12.3 102720 84
2006-06-08 04:57:32 51°14.888 2°54.401 -999 16 12.3 102720 84
2006-06-08 04:57:37 51°14.903 2°54.387 -999 14 12.3 102720 84
2006-06-08 04:57:42 51°14.918 2°54.372 -999 14 12.4 102720 84
2006-06-08 04:57:47 51°14.932 2°54.358 -999 14 12.4 102720 84
2006-06-08 04:57:52 51°14.947 2°54.344 -999 16 12.4 102720 84
2006-06-08 04:57:57 51°14.962 2°54.329 -999 14 12.4 102720 84
2006-06-08 04:58:02 51°14.976 2°54.315 -999 15 12.4 102720 84
2006-06-08 04:58:07 51°14.99 2°54.301 -999 16 12.4 102720 84
2006-06-08 04:58:12 51°15.005 2°54.287 -999 16 12.4 102720 85
2006-06-08 04:58:17 51°15.019 2°54.272 -999 15 12.4 102720 85
2006-06-08 04:58:22 51°15.034 2°54.258 -999 14 12.4 102720 85
2006-06-08 04:58:27 51°15.048 2°54.244 -999 15 12.4 102720 85
2006-06-08 04:58:32 51°15.063 2°54.231 -999 17 12.4 102720 85
2006-06-08 04:58:36 51°15.075 2°54.221 -999 17 12.4 102720 85
2006-06-08 04:58:42 51°15.093 2°54.205 -999 19 12.4 102720 85
2006-06-08 04:58:46 51°15.105 2°54.194 -999 15 12.4 102720 85
2006-06-08 04:58:52 51°15.123 2°54.178 -999 14 12.4 102710 85
2006-06-08 04:58:56 51°15.134 2°54.166 -999 15 12.4 102710 85
2006-06-08 04:59:02 51°15.152 2°54.148 -999 16 12.4 102720 85
2006-06-08 04:59:07 51°15.166 2°54.133 -999 16 12.4 102720 85
2006-06-08 04:59:12 51°15.18 2°54.116 -999 15 12.5 102720 86
2006-06-08 04:59:17 51°15.194 2°54.099 -999 15 12.5 102720 86
2006-06-08 04:59:22 51°15.207 2°54.08 -999 16 12.5 102720 86
2006-06-08 04:59:27 51°15.22 2°54.061 -999 14 12.5 102720 86
2006-06-08 04:59:32 51°15.232 2°54.042 -999 12 12.5 102720 86
2006-06-08 04:59:35 51°15.24 2°54.03 -999 11 12.5 102720 86
2006-06-08 04:59:41 51°15.255 2°54.006 -999 13 12.5 102710 86
2006-06-08 04:59:46 51°15.268 2°53.986 -999 12 12.5 102710 86
2006-06-08 04:59:51 51°15.28 2°53.966 -999 9 12.5 102710 86
2006-06-08 04:59:58 51°15.299 2°53.939 -999 11 12.5 102710 86
2006-06-08 05:00:02 51°15.309 2°53.924 -999 14 12.5 102710 86
2006-06-08 05:00:07 51°15.323 2°53.906 -999 13 12.5 102710 86
2006-06-08 05:00:12 51°15.337 2°53.889 -999 11 12.5 102710 86
2006-06-08 05:00:18 51°15.354 2°53.87 -999 12 12.5 102710 86
2006-06-08 05:00:22 51°15.366 2°53.857 -999 14 12.5 102710 86
2006-06-08 05:00:27 51°15.381 2°53.842 -999 11 12.5 102710 86
2006-06-08 05:00:31 51°15.393 2°53.829 -999 12 12.6 102710 86
2006-06-08 05:00:37 51°15.411 2°53.811 -999 14 12.6 102710 86
2006-06-08 05:00:42 51°15.425 2°53.797 -999 14 12.5 102710 87
2006-06-08 05:00:47 51°15.441 2°53.781 -999 15 12.5 102710 87
2006-06-08 05:00:52 51°15.455 2°53.766 -999 15 12.6 102710 87
2006-06-08 05:00:57 51°15.47 2°53.751 -999 14 12.6 102710 87
2006-06-08 05:01:02 51°15.485 2°53.735 -999 17 12.6 102710 87
2006-06-08 05:01:07 51°15.5 2°53.719 -999 16 12.6 102710 87
2006-06-08 05:01:12 51°15.513 2°53.702 -999 16 12.6 102710 87
2006-06-08 05:01:17 51°15.528 2°53.684 -999 17 12.6 102710 87
2006-06-08 05:01:22 51°15.541 2°53.667 -999 16 12.6 102710 87
2006-06-08 05:01:26 51°15.552 2°53.652 -999 16 12.6 102710 87
2006-06-08 05:01:32 51°15.569 2°53.631 -999 16 12.6 102710 87
2006-06-08 05:01:36 51°15.58 2°53.616 -999 16 12.6 102710 87
2006-06-08 05:01:42 51°15.597 2°53.595 -999 12 12.7 102710 87
2006-06-08 05:01:47 51°15.611 2°53.577 -999 14 12.7 102710 87
2006-06-08 05:01:52 51°15.625 2°53.56 -999 16 12.7 102710 88
2006-06-08 05:01:56 51°15.637 2°53.547 -999 14 12.7 102710 88
2006-06-08 05:02:02 51°15.654 2°53.528 -999 15 12.7 102710 88
2006-06-08 05:02:07 51°15.669 2°53.513 -999 16 12.7 102710 88
2006-06-08 05:02:12 51°15.684 2°53.498 -999 15 12.7 102710 88
2006-06-08 05:02:17 51°15.699 2°53.483 -999 17 12.7 102710 88
2006-06-08 05:02:22 51°15.714 2°53.469 -999 14 12.7 102710 88
2006-06-08 05:02:26 51°15.726 2°53.457 -999 17 12.7 102710 88
2006-06-08 05:02:32 51°15.744 2°53.439 -999 18 12.7 102710 88
2006-06-08 05:02:36 51°15.756 2°53.428 -999 17 12.7 102710 88
2006-06-08 05:02:42 51°15.775 2°53.411 -999 16 12.8 102710 88
2006-06-08 05:02:47 51°15.79 2°53.397 -999 18 12.8 102710 88
2006-06-08 05:02:52 51°15.805 2°53.383 -999 21 12.8 102710 88
2006-06-08 05:02:56 51°15.817 2°53.372 -999 18 12.8 102710 88
2006-06-08 05:03:02 51°15.836 2°53.355 -999 18 12.8 102710 88
2006-06-08 05:03:07 51°15.851 2°53.34 -999 17 12.8 102710 88
2006-06-08 05:03:12 51°15.866 2°53.325 -999 19 12.9 102710 89
2006-06-08 05:03:17 51°15.881 2°53.309 -999 21 12.9 102710 89
2006-06-08 05:03:22 51°15.895 2°53.294 -999 21 12.9 102710 89
2006-06-08 05:03:27 51°15.91 2°53.278 -999 21 12.9 102710 89
2006-06-08 05:03:32 51°15.925 2°53.262 -999 20 12.9 102710 89
2006-06-08 05:03:37 51°15.94 2°53.247 -999 21 12.9 102710 89
2006-06-08 05:03:42 51°15.955 2°53.233 -999 22 12.9 102710 89
2006-06-08 05:03:47 51°15.97 2°53.22 -999 20 12.9 102710 89
2006-06-08 05:03:52 51°15.986 2°53.207 -999 22 13 102700 89
2006-06-08 05:03:57 51°16.002 2°53.195 -999 22 13 102700 89
2006-06-08 05:04:02 51°16.017 2°53.183 -999 21 13 102710 89
2006-06-08 05:04:07 51°16.033 2°53.171 -999 21 13 102710 89
2006-06-08 05:04:12 51°16.049 2°53.16 -999 24 13 102710 89
2006-06-08 05:04:15 51°16.058 2°53.153 -999 24 13 102710 89
2006-06-08 05:04:22 51°16.08 2°53.136 -999 24 13.1 102710 89
2006-06-08 05:04:27 51°16.096 2°53.125 -999 24 13.1 102710 89
2006-06-08 05:04:32 51°16.112 2°53.113 -999 24 13.1 102710 89
2006-06-08 05:04:37 51°16.127 2°53.1 -999 20 13.1 102710 89
2006-06-08 05:04:42 51°16.143 2°53.088 -999 21 13.1 102710 89
2006-06-08 05:04:47 51°16.159 2°53.076 -999 24 13.1 102710 89
2006-06-08 05:04:52 51°16.174 2°53.063 -999 28 13.1 102700 89
2006-06-08 05:04:58 51°16.192 2°53.047 -999 25 13.1 102700 89
2006-06-08 05:05:02 51°16.205 2°53.037 -999 22 13.1 102700 89
2006-06-08 05:05:07 51°16.22 2°53.023 -999 29 13.1 102700 89
2006-06-08 05:05:12 51°16.235 2°53.01 -999 26 13.2 102710 89
2006-06-08 05:05:17 51°16.251 2°52.997 -999 24 13.2 102710 89
2006-06-08 05:05:22 51°16.266 2°52.984 -999 28 13.2 102710 89
2006-06-08 05:05:27 51°16.282 2°52.973 -999 25 13.2 102710 89
2006-06-08 05:05:32 51°16.298 2°52.963 -999 24 13.2 102700 89
2006-06-08 05:05:37 51°16.314 2°52.954 -999 27 13.2 102700 89
2006-06-08 05:05:42 51°16.33 2°52.945 -999 28 13.2 102710 89
2006-06-08 05:05:47 51°16.347 2°52.936 -999 29 13.2 102710 89
2006-06-08 05:05:52 51°16.363 2°52.927 -999 28 13.2 102700 88
2006-06-08 05:05:57 51°16.38 2°52.918 -999 30 13.2 102700 88
2006-06-08 05:06:02 51°16.396 2°52.91 -999 30 13.2 102710 88
2006-06-08 05:06:07 51°16.412 2°52.901 -999 29 13.2 102710 88
2006-06-08 05:06:11 51°16.425 2°52.894 -999 31 13.2 102700 88
2006-06-08 05:06:16 51°16.442 2°52.885 -999 31 13.2 102700 88
2006-06-08 05:06:22 51°16.461 2°52.874 -999 31 13.2 102700 88
2006-06-08 05:06:27 51°16.477 2°52.864 -999 31 13.2 102700 88
2006-06-08 05:06:32 51°16.493 2°52.854 -999 32 13.2 102700 88
2006-06-08 05:06:37 51°16.509 2°52.844 -999 30 13.2 102700 88
2006-06-08 05:06:42 51°16.525 2°52.833 -999 31 13.3 102710 88
2006-06-08 05:06:47 51°16.541 2°52.823 -999 32 13.3 102710 88
2006-06-08 05:06:52 51°16.556 2°52.812 -999 31 13.3 102700 88
2006-06-08 05:06:57 51°16.572 2°52.801 -999 33 13.3 102700 88
2006-06-08 05:07:02 51°16.588 2°52.79 -999 29 13.3 102700 88
2006-06-08 05:07:07 51°16.603 2°52.779 -999 27 13.3 102700 88
2006-06-08 05:07:12 51°16.619 2°52.768 -999 28 13.3 102710 87
2006-06-08 05:07:16 51°16.631 2°52.76 -999 31 13.3 102710 87
2006-06-08 05:07:22 51°16.65 2°52.748 -999 31 13.3 102710 87
2006-06-08 05:07:27 51°16.666 2°52.739 -999 28 13.3 102710 87
2006-06-08 05:07:32 51°16.682 2°52.73 -999 26 13.3 102710 87
2006-06-08 05:07:37 51°16.698 2°52.721 -999 29 13.3 102710 87
2006-06-08 05:07:42 51°16.714 2°52.712 -999 28 13.4 102700 87
2006-06-08 05:07:47 51°16.731 2°52.703 -999 30 13.4 102700 87
2006-06-08 05:07:52 51°16.746 2°52.694 -999 29 13.4 102700 87
2006-06-08 05:07:56 51°16.759 2°52.686 -999 32 13.4 102700 87
2006-06-08 05:08:02 51°16.778 2°52.675 -999 31 13.4 102710 87
2006-06-08 05:08:07 51°16.793 2°52.666 -999 30 13.4 102710 87
2006-06-08 05:08:12 51°16.809 2°52.657 -999 32 13.4 102710 87
2006-06-08 05:08:17 51°16.824 2°52.647 -999 29 13.4 102710 87
2006-06-08 05:08:22 51°16.84 2°52.638 -999 31 13.4 102710 87
2006-06-08 05:08:27 51°16.856 2°52.629 -999 30 13.4 102710 87
2006-06-08 05:08:32 51°16.871 2°52.62 -999 31 13.4 102710 87
2006-06-08 05:08:36 51°16.884 2°52.614 -999 28 13.4 102710 87
2006-06-08 05:08:42 51°16.902 2°52.603 -999 29 13.4 102710 87
2006-06-08 05:08:47 51°16.918 2°52.595 -999 31 13.4 102710 87
2006-06-08 05:08:52 51°16.934 2°52.586 -999 30 13.4 102710 86
2006-06-08 05:08:57 51°16.95 2°52.577 -999 29 13.4 102710 86
2006-06-08 05:09:02 51°16.965 2°52.568 -999 30 13.4 102710 86
2006-06-08 05:09:07 51°16.981 2°52.559 -999 29 13.4 102710 86
2006-06-08 05:09:12 51°16.997 2°52.55 -999 30 13.5 102710 86
2006-06-08 05:09:17 51°17.012 2°52.54 -999 26 13.5 102710 86
2006-06-08 05:09:22 51°17.028 2°52.531 -999 32 13.5 102710 86
2006-06-08 05:09:27 51°17.043 2°52.52 -999 33 13.5 102710 86
2006-06-08 05:09:32 51°17.058 2°52.509 -999 32 13.5 102710 86
2006-06-08 05:09:37 51°17.073 2°52.498 -999 31 13.5 102710 86
2006-06-08 05:09:42 51°17.088 2°52.486 -999 28 13.5 102710 86
2006-06-08 05:09:47 51°17.103 2°52.474 -999 33 13.5 102710 86
2006-06-08 05:09:51 51°17.115 2°52.464 -999 30 13.5 102710 86
2006-06-08 05:09:58 51°17.136 2°52.446 -999 30 13.5 102710 86
2006-06-08 05:10:02 51°17.148 2°52.437 -999 29 13.5 102710 86
2006-06-08 05:10:07 51°17.163 2°52.425 -999 31 13.5 102710 86
2006-06-08 05:10:12 51°17.178 2°52.415 -999 29 13.5 102710 86
2006-06-08 05:10:17 51°17.194 2°52.404 -999 32 13.5 102710 86
2006-06-08 05:10:22 51°17.209 2°52.395 -999 31 13.5 102710 86
2006-06-08 05:10:27 51°17.225 2°52.385 -999 32 13.5 102710 86
2006-06-08 05:10:32 51°17.24 2°52.376 -999 32 13.5 102710 86
2006-06-08 05:10:37 51°17.256 2°52.367 -999 31 13.5 102710 86
2006-06-08 05:10:42 51°17.272 2°52.359 -999 28 13.5 102710 86
2006-06-08 05:10:47 51°17.288 2°52.35 -999 30 13.5 102710 86
2006-06-08 05:10:52 51°17.304 2°52.341 -999 30 13.5 102710 86
2006-06-08 05:10:57 51°17.319 2°52.332 -999 33 13.5 102710 86
2006-06-08 05:11:02 51°17.335 2°52.322 -999 29 13.5 102700 86
2006-06-08 05:11:06 51°17.347 2°52.314 -999 33 13.5 102700 86
2006-06-08 05:11:11 51°17.363 2°52.304 -999 32 13.5 102700 86
2006-06-08 05:11:16 51°17.378 2°52.293 -999 29 13.5 102700 86
2006-06-08 05:11:22 51°17.396 2°52.281 -999 31 13.5 102700 86
2006-06-08 05:11:27 51°17.412 2°52.27 -999 31 13.5 102700 86
2006-06-08 05:11:32 51°17.427 2°52.259 -999 32 13.5 102700 86
2006-06-08 05:11:36 51°17.439 2°52.249 -999 30 13.5 102700 86
2006-06-08 05:11:42 51°17.457 2°52.235 -999 31 13.5 102710 86
2006-06-08 05:11:47 51°17.472 2°52.223 -999 29 13.5 102710 86
2006-06-08 05:11:51 51°17.484 2°52.214 -999 30 13.5 102700 86
2006-06-08 05:11:56 51°17.499 2°52.202 -999 29 13.5 102700 86
2006-06-08 05:12:02 51°17.518 2°52.188 -999 30 13.5 102710 86
2006-06-08 05:12:07 51°17.533 2°52.178 -999 32 13.5 102710 86
2006-06-08 05:12:12 51°17.548 2°52.167 -999 29 13.5 102700 86
2006-06-08 05:12:17 51°17.564 2°52.157 -999 29 13.5 102700 86
2006-06-08 05:12:22 51°17.579 2°52.148 -999 29 13.5 102700 86
2006-06-08 05:12:27 51°17.595 2°52.138 -999 30 13.5 102700 86
2006-06-08 05:12:31 51°17.607 2°52.131 -999 30 13.5 102700 86
2006-06-08 05:12:35 51°17.62 2°52.123 -999 32 13.5 102700 86
2006-06-08 05:12:42 51°17.642 2°52.11 -999 32 13.5 102700 86
2006-06-08 05:12:47 51°17.658 2°52.101 -999 31 13.5 102700 86
2006-06-08 05:12:51 51°17.67 2°52.093 -999 29 13.5 102700 86
2006-06-08 05:12:56 51°17.686 2°52.083 -999 31 13.5 102700 86
2006-06-08 05:13:02 51°17.704 2°52.07 -999 31 13.5 102700 86
2006-06-08 05:13:07 51°17.72 2°52.06 -999 28 13.5 102700 86
2006-06-08 05:13:12 51°17.735 2°52.05 -999 30 13.5 102700 86
2006-06-08 05:13:16 51°17.747 2°52.041 -999 30 13.5 102700 86
2006-06-08 05:13:22 51°17.766 2°52.029 -999 30 13.5 102700 86
2006-06-08 05:13:27 51°17.781 2°52.02 -999 32 13.5 102700 86
2006-06-08 05:13:32 51°17.797 2°52.011 -999 31 13.5 102700 86
2006-06-08 05:13:36 51°17.809 2°52.003 -999 32 13.5 102700 86
2006-06-08 05:13:41 51°17.825 2°51.993 -999 28 13.5 102700 86
2006-06-08 05:13:48 51°17.847 2°51.979 -999 30 13.5 102700 86
2006-06-08 05:13:52 51°17.859 2°51.972 -999 29 13.5 102700 86
2006-06-08 05:13:57 51°17.874 2°51.961 -999 31 13.5 102700 86
2006-06-08 05:14:02 51°17.89 2°51.951 -999 32 13.5 102700 86
2006-06-08 05:14:07 51°17.905 2°51.94 -999 31 13.5 102700 86
2006-06-08 05:14:12 51°17.921 2°51.93 -999 32 13.5 102700 86
2006-06-08 05:14:18 51°17.939 2°51.918 -999 31 13.5 102700 86
2006-06-08 05:14:21 51°17.949 2°51.912 -999 32 13.5 102700 86
2006-06-08 05:14:26 51°17.964 2°51.902 -999 32 13.5 102700 86
2006-06-08 05:14:31 51°17.98 2°51.892 -999 31 13.5 102700 86
2006-06-08 05:14:38 51°18.002 2°51.879 -999 31 13.5 102700 86
2006-06-08 05:14:42 51°18.015 2°51.871 -999 29 13.5 102700 86
2006-06-08 05:14:47 51°18.03 2°51.861 -999 32 13.5 102700 86
2006-06-08 05:14:52 51°18.046 2°51.851 -999 33 13.5 102700 86
2006-06-08 05:14:57 51°18.062 2°51.84 -999 31 13.5 102700 86
2006-06-08 05:15:01 51°18.074 2°51.831 -999 30 13.5 102700 86
2006-06-08 05:15:07 51°18.092 2°51.818 -999 25 13.5 102700 86
2006-06-08 05:15:12 51°18.108 2°51.806 -999 29 13.5 102700 86
2006-06-08 05:15:16 51°18.12 2°51.796 -999 30 13.5 102700 86
2006-06-08 05:15:22 51°18.138 2°51.781 -999 29 13.5 102700 86
2006-06-08 05:15:27 51°18.153 2°51.768 -999 28 13.5 102700 86
2006-06-08 05:15:32 51°18.168 2°51.756 -999 25 13.5 102700 86
2006-06-08 05:15:37 51°18.184 2°51.744 -999 28 13.5 102700 86
2006-06-08 05:15:42 51°18.199 2°51.733 -999 29 13.5 102700 86
2006-06-08 05:15:48 51°18.218 2°51.72 -999 25 13.5 102700 86
2006-06-08 05:15:51 51°18.228 2°51.714 -999 27 13.5 102700 86
2006-06-08 05:15:56 51°18.243 2°51.703 -999 28 13.5 102700 86
2006-06-08 05:16:02 51°18.262 2°51.691 -999 25 13.5 102700 86
2006-06-08 05:16:08 51°18.281 2°51.678 -999 28 13.5 102700 86
2006-06-08 05:16:11 51°18.29 2°51.672 -999 28 13.5 102700 86
2006-06-08 05:16:17 51°18.309 2°51.66 -999 29 13.5 102700 86
2006-06-08 05:16:22 51°18.325 2°51.649 -999 28 13.5 102700 86
2006-06-08 05:16:26 51°18.337 2°51.64 -999 26 13.5 102700 86
2006-06-08 05:16:32 51°18.356 2°51.627 -999 26 13.5 102700 86
2006-06-08 05:16:36 51°18.369 2°51.617 -999 27 13.5 102700 86
2006-06-08 05:16:42 51°18.387 2°51.603 -999 25 13.5 102700 86
2006-06-08 05:16:47 51°18.403 2°51.591 -999 25 13.5 102700 86
2006-06-08 05:16:52 51°18.418 2°51.579 -999 23 13.5 102700 86
2006-06-08 05:16:58 51°18.437 2°51.564 -999 27 13.5 102700 86
2006-06-08 05:17:01 51°18.446 2°51.557 -999 25 13.5 102700 86
2006-06-08 05:17:07 51°18.464 2°51.542 -999 26 13.5 102700 86
2006-06-08 05:17:12 51°18.48 2°51.531 -999 26 13.5 102700 86
2006-06-08 05:17:18 51°18.499 2°51.518 -999 26 13.5 102700 86
2006-06-08 05:17:21 51°18.509 2°51.511 -999 28 13.5 102700 86
2006-06-08 05:17:26 51°18.524 2°51.5 -999 25 13.5 102700 86
2006-06-08 05:17:32 51°18.543 2°51.487 -999 25 13.5 102700 86
2006-06-08 05:17:37 51°18.559 2°51.477 -999 26 13.5 102700 86
2006-06-08 05:17:42 51°18.575 2°51.465 -999 25 13.5 102710 86
2006-06-08 05:17:47 51°18.591 2°51.454 -999 26 13.5 102710 86
2006-06-08 05:17:52 51°18.606 2°51.443 -999 24 13.5 102700 86
2006-06-08 05:17:57 51°18.622 2°51.432 -999 24 13.5 102700 86
2006-06-08 05:18:02 51°18.638 2°51.42 -999 24 13.5 102700 86
2006-06-08 05:18:07 51°18.654 2°51.409 -999 24 13.5 102700 86
2006-06-08 05:18:12 51°18.67 2°51.397 -999 24 13.5 102700 86
2006-06-08 05:18:17 51°18.685 2°51.386 -999 26 13.5 102700 86
2006-06-08 05:18:22 51°18.701 2°51.375 -999 23 13.5 102710 86
2006-06-08 05:18:27 51°18.717 2°51.364 -999 24 13.5 102710 86
2006-06-08 05:18:32 51°18.733 2°51.353 -999 24 13.5 102700 86
2006-06-08 05:18:38 51°18.752 2°51.341 -999 22 13.5 102700 86
2006-06-08 05:18:41 51°18.762 2°51.334 -999 21 13.5 102700 86
2006-06-08 05:18:46 51°18.777 2°51.324 -999 25 13.5 102700 86
2006-06-08 05:18:52 51°18.797 2°51.311 -999 26 13.5 102710 86
2006-06-08 05:18:57 51°18.813 2°51.299 -999 26 13.5 102710 86
2006-06-08 05:19:02 51°18.828 2°51.288 -999 25 13.5 102700 86
2006-06-08 05:19:07 51°18.844 2°51.277 -999 22 13.5 102700 86
2006-06-08 05:19:12 51°18.86 2°51.266 -999 24 13.5 102700 86
2006-06-08 05:19:17 51°18.876 2°51.255 -999 25 13.5 102700 86
2006-06-08 05:19:21 51°18.889 2°51.247 -999 23 13.5 102710 86
2006-06-08 05:19:27 51°18.908 2°51.234 -999 24 13.5 102710 86
2006-06-08 05:19:32 51°18.924 2°51.223 -999 22 13.5 102710 86
2006-06-08 05:19:37 51°18.94 2°51.212 -999 23 13.5 102710 86
2006-06-08 05:19:42 51°18.956 2°51.201 -999 24 13.5 102710 86
2006-06-08 05:19:47 51°18.972 2°51.19 -999 23 13.5 102710 86
2006-06-08 05:19:52 51°18.988 2°51.179 -999 23 13.5 102710 86
2006-06-08 05:19:57 51°19.004 2°51.168 -999 24 13.5 102710 86
2006-06-08 05:20:02 51°19.02 2°51.157 -999 24 13.5 102710 86
2006-06-08 05:20:07 51°19.036 2°51.146 -999 26 13.5 102710 86
2006-06-08 05:20:11 51°19.049 2°51.138 -999 21 13.6 102710 86
2006-06-08 05:20:17 51°19.068 2°51.126 -999 22 13.6 102710 86
2006-06-08 05:20:22 51°19.084 2°51.116 -999 23 13.6 102700 86
2006-06-08 05:20:28 51°19.104 2°51.104 -999 21 13.6 102700 86
2006-06-08 05:20:31 51°19.113 2°51.098 -999 25 13.5 102710 86
2006-06-08 05:20:38 51°19.136 2°51.083 -999 25 13.5 102710 86
2006-06-08 05:20:42 51°19.148 2°51.074 -999 25 13.6 102710 86
2006-06-08 05:20:47 51°19.164 2°51.062 -999 23 13.6 102710 86
2006-06-08 05:20:52 51°19.18 2°51.05 -999 22 13.6 102710 86
2006-06-08 05:20:57 51°19.195 2°51.038 -999 23 13.6 102710 86
2006-06-08 05:21:02 51°19.211 2°51.025 -999 23 13.6 102710 86
2006-06-08 05:21:07 51°19.227 2°51.012 -999 24 13.6 102710 86
2006-06-08 05:21:11 51°19.239 2°51.002 -999 25 13.6 102710 86
2006-06-08 05:21:15 51°19.251 2°50.991 -999 23 13.6 102710 86
2006-06-08 05:21:22 51°19.273 2°50.973 -999 22 13.6 102720 86
2006-06-08 05:21:27 51°19.289 2°50.96 -999 24 13.6 102720 86
2006-06-08 05:21:32 51°19.305 2°50.948 -999 21 13.6 102710 86
2006-06-08 05:21:38 51°19.323 2°50.934 -999 24 13.6 102710 86
2006-06-08 05:21:42 51°19.336 2°50.924 -999 23 13.6 102710 86
2006-06-08 05:21:48 51°19.355 2°50.91 -999 23 13.6 102710 86
2006-06-08 05:21:51 51°19.365 2°50.903 -999 25 13.6 102710 86
2006-06-08 05:21:57 51°19.384 2°50.889 -999 23 13.6 102710 86
2006-06-08 05:22:02 51°19.4 2°50.878 -999 22 13.6 102710 85
2006-06-08 05:22:07 51°19.415 2°50.867 -999 23 13.6 102710 85
2006-06-08 05:22:12 51°19.431 2°50.855 -999 22 13.6 102720 85
2006-06-08 05:22:17 51°19.447 2°50.843 -999 24 13.6 102720 85
2006-06-08 05:22:22 51°19.463 2°50.832 -999 23 13.6 102710 85
2006-06-08 05:22:27 51°19.479 2°50.82 -999 24 13.6 102710 85
2006-06-08 05:22:32 51°19.494 2°50.808 -999 22 13.6 102720 85
2006-06-08 05:22:37 51°19.511 2°50.796 -999 22 13.6 102720 85
2006-06-08 05:22:41 51°19.523 2°50.786 -999 23 13.6 102720 85
2006-06-08 05:22:46 51°19.539 2°50.775 -999 23 13.6 102720 85
2006-06-08 05:22:51 51°19.554 2°50.763 -999 21 13.6 102720 85
2006-06-08 05:22:57 51°19.573 2°50.749 -999 23 13.6 102720 85
2006-06-08 05:23:01 51°19.586 2°50.74 -999 24 13.6 102720 86
2006-06-08 05:23:06 51°19.602 2°50.729 -999 23 13.6 102720 86
2006-06-08 05:23:11 51°19.617 2°50.717 -999 24 13.6 102720 85
2006-06-08 05:23:17 51°19.637 2°50.703 -999 21 13.6 102720 85
2006-06-08 05:23:22 51°19.652 2°50.692 -999 23 13.6 102720 86
2006-06-08 05:23:27 51°19.668 2°50.681 -999 23 13.6 102720 86
2006-06-08 05:23:32 51°19.683 2°50.669 -999 24 13.6 102720 85
2006-06-08 05:23:38 51°19.702 2°50.655 -999 23 13.6 102720 85
2006-06-08 05:23:41 51°19.711 2°50.647 -999 24 13.6 102720 86
2006-06-08 05:23:47 51°19.73 2°50.633 -999 22 13.6 102720 86
2006-06-08 05:23:52 51°19.746 2°50.621 -999 21 13.7 102720 86
2006-06-08 05:23:57 51°19.762 2°50.609 -999 25 13.7 102720 86
2006-06-08 05:24:02 51°19.777 2°50.598 -999 25 13.7 102720 86
2006-06-08 05:24:06 51°19.79 2°50.589 -999 22 13.7 102720 86
2006-06-08 05:24:11 51°19.806 2°50.577 -999 21 13.7 102720 86
2006-06-08 05:24:16 51°19.822 2°50.566 -999 24 13.7 102720 86
2006-06-08 05:24:22 51°19.841 2°50.552 -999 23 13.7 102720 86
2006-06-08 05:24:27 51°19.857 2°50.541 -999 24 13.7 102720 86
2006-06-08 05:24:32 51°19.873 2°50.529 -999 25 13.7 102720 86
2006-06-08 05:24:36 51°19.886 2°50.52 -999 22 13.7 102720 86
2006-06-08 05:24:42 51°19.905 2°50.507 -999 22 13.7 102720 86
2006-06-08 05:24:47 51°19.921 2°50.495 -999 24 13.7 102720 86
2006-06-08 05:24:52 51°19.937 2°50.484 -999 24 13.7 102720 86
2006-06-08 05:24:55 51°19.946 2°50.477 -999 25 13.7 102720 86
2006-06-08 05:25:02 51°19.969 2°50.461 -999 23 13.7 102720 86
2006-06-08 05:25:07 51°19.985 2°50.45 -999 24 13.7 102720 86
2006-06-08 05:25:12 51°20.001 2°50.438 -999 24 13.7 102720 86
2006-06-08 05:25:18 51°20.02 2°50.424 -999 25 13.7 102720 86
2006-06-08 05:25:22 51°20.032 2°50.414 -999 25 13.7 102720 86
2006-06-08 05:25:27 51°20.048 2°50.401 -999 24 13.7 102720 86
2006-06-08 05:25:32 51°20.064 2°50.388 -999 25 13.7 102710 86
2006-06-08 05:25:37 51°20.079 2°50.375 -999 24 13.7 102710 86
2006-06-08 05:25:42 51°20.095 2°50.363 -999 25 13.7 102720 86
2006-06-08 05:25:47 51°20.111 2°50.351 -999 24 13.7 102720 86
2006-06-08 05:25:52 51°20.127 2°50.339 -999 22 13.7 102720 86
2006-06-08 05:25:58 51°20.146 2°50.324 -999 25 13.7 102720 86
2006-06-08 05:26:02 51°20.159 2°50.315 -999 24 13.7 102720 86
2006-06-08 05:26:07 51°20.175 2°50.304 -999 24 13.7 102720 86
2006-06-08 05:26:12 51°20.191 2°50.292 -999 23 13.7 102710 86
2006-06-08 05:26:16 51°20.204 2°50.283 -999 26 13.7 102710 86
2006-06-08 05:26:22 51°20.223 2°50.269 -999 25 13.7 102720 86
2006-06-08 05:26:27 51°20.239 2°50.258 -999 25 13.7 102720 86
2006-06-08 05:26:32 51°20.255 2°50.246 -999 24 13.7 102710 86
2006-06-08 05:26:36 51°20.267 2°50.237 -999 26 13.7 102710 86
2006-06-08 05:26:41 51°20.283 2°50.225 -999 26 13.7 102720 86
2006-06-08 05:26:47 51°20.302 2°50.211 -999 25 13.7 102720 86
2006-06-08 05:26:52 51°20.318 2°50.2 -999 25 13.7 102710 86
2006-06-08 05:26:57 51°20.334 2°50.187 -999 24 13.7 102710 86
2006-06-08 05:27:02 51°20.35 2°50.176 -999 25 13.7 102720 86
2006-06-08 05:27:07 51°20.366 2°50.164 -999 24 13.7 102720 86
2006-06-08 05:27:12 51°20.382 2°50.152 -999 24 13.7 102710 86
2006-06-08 05:27:17 51°20.398 2°50.141 -999 23 13.7 102710 86
2006-06-08 05:27:22 51°20.414 2°50.13 -999 24 13.7 102720 86
2006-06-08 05:27:27 51°20.43 2°50.119 -999 22 13.7 102720 86
2006-06-08 05:27:32 51°20.446 2°50.108 -999 26 13.7 102710 86
2006-06-08 05:27:37 51°20.463 2°50.098 -999 25 13.7 102710 86
2006-06-08 05:27:42 51°20.478 2°50.086 -999 26 13.7 102710 86
2006-06-08 05:27:46 51°20.491 2°50.078 -999 23 13.7 102710 86
2006-06-08 05:27:52 51°20.511 2°50.064 -999 23 13.7 102710 86
2006-06-08 05:27:55 51°20.52 2°50.057 -999 25 13.7 102710 86
2006-06-08 05:28:02 51°20.543 2°50.041 -999 25 13.7 102720 86
2006-06-08 05:28:07 51°20.559 2°50.029 -999 24 13.7 102720 86
2006-06-08 05:28:12 51°20.574 2°50.017 -999 24 13.6 102710 86
2006-06-08 05:28:15 51°20.584 2°50.01 -999 25 13.6 102710 86
2006-06-08 05:28:22 51°20.607 2°49.994 -999 25 13.7 102720 86
2006-06-08 05:28:27 51°20.623 2°49.983 -999 25 13.7 102720 86
2006-06-08 05:28:31 51°20.636 2°49.974 -999 23 13.7 102720 86
2006-06-08 05:28:38 51°20.658 2°49.957 -999 24 13.7 102720 86
2006-06-08 05:28:42 51°20.671 2°49.947 -999 23 13.7 102710 86
2006-06-08 05:28:48 51°20.69 2°49.934 -999 24 13.7 102710 86
2006-06-08 05:28:52 51°20.703 2°49.924 -999 24 13.7 102720 86
2006-06-08 05:28:56 51°20.717 2°49.915 -999 25 13.7 102720 86
2006-06-08 05:29:03 51°20.74 2°49.898 -999 24 13.7 102710 86
2006-06-08 05:29:08 51°20.756 2°49.886 -999 24 13.7 102710 86
2006-06-08 05:29:12 51°20.768 2°49.876 -999 22 13.7 102720 87
2006-06-08 05:29:17 51°20.784 2°49.863 -999 26 13.7 102720 87
2006-06-08 05:29:22 51°20.8 2°49.85 -999 22 13.6 102720 87
2006-06-08 05:29:27 51°20.816 2°49.837 -999 23 13.6 102720 87
2006-06-08 05:29:32 51°20.831 2°49.824 -999 22 13.7 102720 87
2006-06-08 05:29:35 51°20.841 2°49.816 -999 23 13.7 102720 87
2006-06-08 05:29:42 51°20.863 2°49.798 -999 23 13.6 102720 87
2006-06-08 05:29:47 51°20.879 2°49.785 -999 24 13.6 102720 87
2006-06-08 05:29:51 51°20.892 2°49.775 -999 24 13.7 102720 87
2006-06-08 05:29:56 51°20.908 2°49.764 -999 22 13.7 102720 87
2006-06-08 05:30:02 51°20.928 2°49.75 -999 24 13.7 102720 87
2006-06-08 05:30:07 51°20.944 2°49.739 -999 23 13.7 102720 87
2006-06-08 05:30:12 51°20.961 2°49.728 -999 23 13.7 102720 87
2006-06-08 05:30:18 51°20.98 2°49.715 -999 24 13.7 102720 87
2006-06-08 05:30:22 51°20.993 2°49.706 -999 24 13.7 102720 87
2006-06-08 05:30:27 51°21.009 2°49.695 -999 22 13.7 102720 87
2006-06-08 05:30:32 51°21.025 2°49.684 -999 22 13.7 102720 87
2006-06-08 05:30:37 51°21.042 2°49.673 -999 24 13.7 102720 87
2006-06-08 05:30:42 51°21.058 2°49.663 -999 22 13.7 102710 87
2006-06-08 05:30:48 51°21.077 2°49.65 -999 24 13.7 102710 87
2006-06-08 05:30:52 51°21.09 2°49.641 -999 23 13.7 102720 87
2006-06-08 05:30:58 51°21.11 2°49.628 -999 23 13.7 102720 87
2006-06-08 05:31:02 51°21.123 2°49.619 -999 22 13.7 102720 87
2006-06-08 05:31:07 51°21.139 2°49.608 -999 23 13.7 102720 87
2006-06-08 05:31:12 51°21.156 2°49.598 -999 24 13.7 102720 87
2006-06-08 05:31:17 51°21.172 2°49.587 -999 20 13.7 102720 87
2006-06-08 05:31:22 51°21.189 2°49.577 -999 22 13.7 102720 87
2006-06-08 05:31:27 51°21.205 2°49.567 -999 24 13.7 102720 87
2006-06-08 05:31:32 51°21.222 2°49.557 -999 23 13.7 102720 87
2006-06-08 05:31:36 51°21.235 2°49.549 -999 24 13.7 102720 87
2006-06-08 05:31:41 51°21.251 2°49.538 -999 22 13.7 102720 87
2006-06-08 05:31:47 51°21.271 2°49.525 -999 22 13.7 102720 87
2006-06-08 05:31:52 51°21.287 2°49.514 -999 22 13.7 102720 87
2006-06-08 05:31:57 51°21.304 2°49.503 -999 23 13.7 102720 87
2006-06-08 05:32:02 51°21.32 2°49.492 -999 23 13.7 102720 87
2006-06-08 05:32:06 51°21.333 2°49.483 -999 23 13.7 102720 87
2006-06-08 05:32:12 51°21.353 2°49.47 -999 23 13.6 102720 87
2006-06-08 05:32:16 51°21.366 2°49.461 -999 25 13.6 102720 87
2006-06-08 05:32:22 51°21.385 2°49.449 -999 22 13.6 102720 87
2006-06-08 05:32:27 51°21.402 2°49.438 -999 15 13.6 102720 87
2006-06-08 05:32:32 51°21.418 2°49.428 -999 16 13.7 102720 88
2006-06-08 05:32:38 51°21.438 2°49.415 -999 24 13.7 102720 88
2006-06-08 05:32:42 51°21.45 2°49.407 -999 22 13.6 102720 88
2006-06-08 05:32:47 51°21.467 2°49.395 -999 26 13.6 102720 88
2006-06-08 05:32:52 51°21.483 2°49.385 -999 23 13.6 102720 87
2006-06-08 05:32:56 51°21.496 2°49.376 -999 24 13.6 102720 87
2006-06-08 05:33:02 51°21.516 2°49.363 -999 23 13.6 102720 88
2006-06-08 05:33:08 51°21.535 2°49.35 -999 23 13.6 102720 88
2006-06-08 05:33:12 51°21.548 2°49.341 -999 24 13.6 102720 88
2006-06-08 05:33:16 51°21.561 2°49.332 -999 23 13.6 102720 88
2006-06-08 05:33:22 51°21.581 2°49.319 -999 22 13.8 102720 88
2006-06-08 05:33:27 51°21.597 2°49.308 -999 22 13.8 102720 88
2006-06-08 05:33:32 51°21.613 2°49.297 -999 23 13.6 102720 88
2006-06-08 05:33:36 51°21.625 2°49.288 -999 23 13.6 102720 88
2006-06-08 05:33:42 51°21.645 2°49.275 -999 23 13.6 102720 88
2006-06-08 05:33:47 51°21.661 2°49.264 -999 22 13.6 102720 88
2006-06-08 05:33:52 51°21.677 2°49.253 -999 23 13.6 102720 88
2006-06-08 05:33:56 51°21.69 2°49.245 -999 21 13.6 102720 88
2006-06-08 05:34:02 51°21.709 2°49.232 -999 22 13.6 102720 88
2006-06-08 05:34:07 51°21.726 2°49.221 -999 21 13.6 102720 88
2006-06-08 05:34:12 51°21.741 2°49.21 -999 20 13.6 102720 88
2006-06-08 05:34:16 51°21.754 2°49.202 -999 23 13.6 102720 88
2006-06-08 05:34:22 51°21.774 2°49.187 -999 20 13.6 102720 88
2006-06-08 05:34:26 51°21.786 2°49.178 -999 21 13.6 102720 88
2006-06-08 05:34:32 51°21.806 2°49.165 -999 20 13.6 102720 88
2006-06-08 05:34:37 51°21.822 2°49.154 -999 21 13.6 102720 88
2006-06-08 05:34:42 51°21.838 2°49.144 -999 21 13.6 102720 88
2006-06-08 05:34:46 51°21.852 2°49.136 -999 21 13.6 102720 88
2006-06-08 05:34:51 51°21.868 2°49.126 -999 22 13.6 102720 88
2006-06-08 05:34:56 51°21.884 2°49.117 -999 20 13.6 102720 88
2006-06-08 05:35:02 51°21.904 2°49.106 -999 19 13.6 102720 88
2006-06-08 05:35:07 51°21.921 2°49.097 -999 21 13.6 102720 88
2006-06-08 05:35:12 51°21.937 2°49.088 -999 23 13.6 102720 88
2006-06-08 05:35:18 51°21.957 2°49.076 -999 21 13.6 102720 88
2006-06-08 05:35:22 51°21.97 2°49.068 -999 21 13.6 102720 88
2006-06-08 05:35:27 51°21.986 2°49.059 -999 21 13.6 102720 88
2006-06-08 05:35:32 51°22.003 2°49.049 -999 20 13.6 102720 88
2006-06-08 05:35:37 51°22.019 2°49.039 -999 22 13.6 102720 88
2006-06-08 05:35:42 51°22.036 2°49.029 -999 21 13.6 102720 88
2006-06-08 05:35:47 51°22.052 2°49.019 -999 22 13.6 102720 88
2006-06-08 05:35:52 51°22.068 2°49.008 -999 21 13.6 102720 88
2006-06-08 05:35:56 51°22.081 2°49 -999 20 13.6 102720 88
2006-06-08 05:36:02 51°22.101 2°48.988 -999 20 13.6 102720 88
2006-06-08 05:36:08 51°22.121 2°48.975 -999 19 13.6 102720 88
2006-06-08 05:36:12 51°22.134 2°48.967 -999 20 13.6 102720 88
2006-06-08 05:36:16 51°22.147 2°48.959 -999 22 13.6 102720 88
2006-06-08 05:36:22 51°22.167 2°48.947 -999 20 13.6 102720 88
2006-06-08 05:36:28 51°22.186 2°48.936 -999 20 13.6 102720 88
2006-06-08 05:36:32 51°22.2 2°48.929 -999 19 13.6 102730 88
2006-06-08 05:36:37 51°22.216 2°48.92 -999 22 13.6 102730 88
2006-06-08 05:36:42 51°22.233 2°48.911 -999 22 13.6 102720 88
2006-06-08 05:36:47 51°22.249 2°48.902 -999 21 13.6 102720 88
2006-06-08 05:36:51 51°22.262 2°48.895 -999 22 13.6 102720 88
2006-06-08 05:36:56 51°22.279 2°48.885 -999 21 13.6 102720 88
2006-06-08 05:37:02 51°22.298 2°48.874 -999 23 13.6 102720 88
2006-06-08 05:37:07 51°22.315 2°48.865 -999 22 13.6 102720 88
2006-06-08 05:37:12 51°22.331 2°48.855 -999 21 13.6 102720 89
2006-06-08 05:37:16 51°22.344 2°48.847 -999 19 13.6 102720 89
2006-06-08 05:37:22 51°22.363 2°48.834 -999 21 13.6 102720 89
2006-06-08 05:37:27 51°22.379 2°48.824 -999 22 13.6 102720 89
2006-06-08 05:37:31 51°22.392 2°48.816 -999 21 13.6 102720 88
2006-06-08 05:37:36 51°22.408 2°48.806 -999 21 13.6 102720 88
2006-06-08 05:37:42 51°22.428 2°48.795 -999 20 13.6 102720 89
2006-06-08 05:37:47 51°22.444 2°48.786 -999 22 13.6 102720 89
2006-06-08 05:37:52 51°22.46 2°48.777 -999 22 13.6 102720 88
2006-06-08 05:37:57 51°22.476 2°48.768 -999 23 13.6 102720 88
2006-06-08 05:38:02 51°22.492 2°48.758 -999 21 13.6 102720 88
2006-06-08 05:38:07 51°22.508 2°48.749 -999 21 13.6 102720 88
2006-06-08 05:38:12 51°22.524 2°48.74 -999 21 13.6 102720 89
2006-06-08 05:38:17 51°22.54 2°48.73 -999 21 13.6 102720 89
2006-06-08 05:38:22 51°22.556 2°48.721 -999 21 13.6 102720 89
2006-06-08 05:38:27 51°22.572 2°48.711 -999 22 13.6 102720 89
2006-06-08 05:38:32 51°22.588 2°48.702 -999 25 13.6 102720 89
2006-06-08 05:38:37 51°22.605 2°48.693 -999 23 13.6 102720 89
2006-06-08 05:38:42 51°22.62 2°48.684 -999 21 13.6 102720 89
2006-06-08 05:38:48 51°22.639 2°48.672 -999 21 13.6 102720 89
2006-06-08 05:38:52 51°22.652 2°48.665 -999 23 13.6 102720 89
2006-06-08 05:38:58 51°22.671 2°48.654 -999 23 13.6 102720 89
2006-06-08 05:39:02 51°22.684 2°48.646 -999 21 13.6 102720 89
2006-06-08 05:39:07 51°22.7 2°48.637 -999 21 13.6 102720 89
2006-06-08 05:39:12 51°22.716 2°48.627 -999 20 13.6 102720 89
2006-06-08 05:39:17 51°22.732 2°48.618 -999 23 13.6 102720 89
2006-06-08 05:39:22 51°22.748 2°48.609 -999 21 13.6 102720 89
2006-06-08 05:39:26 51°22.761 2°48.601 -999 20 13.6 102720 89
2006-06-08 05:39:32 51°22.78 2°48.589 -999 22 13.6 102720 89
2006-06-08 05:39:36 51°22.792 2°48.581 -999 21 13.6 102720 89
2006-06-08 05:39:42 51°22.811 2°48.568 -999 20 13.6 102720 89
2006-06-08 05:39:47 51°22.827 2°48.558 -999 20 13.6 102720 89
2006-06-08 05:39:52 51°22.842 2°48.547 -999 20 13.6 102720 89
2006-06-08 05:39:58 51°22.862 2°48.535 -999 19 13.6 102720 89
2006-06-08 05:40:02 51°22.874 2°48.527 -999 20 13.6 102720 89
2006-06-08 05:40:07 51°22.89 2°48.518 -999 18 13.6 102720 89
2006-06-08 05:40:12 51°22.906 2°48.509 -999 19 13.6 102720 89
2006-06-08 05:40:16 51°22.919 2°48.501 -999 19 13.6 102720 89
2006-06-08 05:40:22 51°22.938 2°48.491 -999 18 13.6 102730 89
2006-06-08 05:40:27 51°22.954 2°48.481 -999 21 13.6 102730 89
2006-06-08 05:40:32 51°22.97 2°48.472 -999 19 13.6 102720 89
2006-06-08 05:40:36 51°22.983 2°48.464 -999 20 13.6 102720 89
2006-06-08 05:40:42 51°23.003 2°48.452 -999 20 13.6 102720 89
2006-06-08 05:40:47 51°23.018 2°48.442 -999 19 13.6 102720 89
2006-06-08 05:40:52 51°23.034 2°48.432 -999 20 13.6 102720 89
2006-06-08 05:40:56 51°23.047 2°48.423 -999 19 13.6 102720 89
2006-06-08 05:41:02 51°23.066 2°48.41 -999 19 13.6 102720 89
2006-06-08 05:41:08 51°23.085 2°48.397 -999 19 13.6 102720 89
2006-06-08 05:41:12 51°23.097 2°48.388 -999 18 13.6 102720 89
2006-06-08 05:41:17 51°23.113 2°48.378 -999 20 13.6 102720 89
2006-06-08 05:41:22 51°23.129 2°48.368 -999 21 13.6 102720 89
2006-06-08 05:41:26 51°23.142 2°48.36 -999 20 13.6 102720 89
2006-06-08 05:41:31 51°23.158 2°48.35 -999 21 13.6 102720 89
2006-06-08 05:41:36 51°23.174 2°48.341 -999 20 13.6 102720 89
2006-06-08 05:41:42 51°23.194 2°48.329 -999 20 13.6 102720 89
2006-06-08 05:41:47 51°23.21 2°48.319 -999 20 13.6 102720 89
2006-06-08 05:41:52 51°23.226 2°48.31 -999 21 13.6 102720 89
2006-06-08 05:41:56 51°23.239 2°48.302 -999 19 13.6 102720 89
2006-06-08 05:42:02 51°23.258 2°48.291 -999 20 13.6 102720 89
2006-06-08 05:42:07 51°23.274 2°48.281 -999 21 13.6 102720 89
2006-06-08 05:42:12 51°23.29 2°48.27 -999 19 13.6 102720 89
2006-06-08 05:42:15 51°23.3 2°48.264 -999 18 13.6 102720 89
2006-06-08 05:42:22 51°23.322 2°48.248 -999 18 13.6 102720 89
2006-06-08 05:42:27 51°23.338 2°48.237 -999 22 13.6 102720 89
2006-06-08 05:42:32 51°23.354 2°48.226 -999 21 13.6 102720 89
2006-06-08 05:42:36 51°23.367 2°48.218 -999 20 13.6 102720 89
2006-06-08 05:42:42 51°23.386 2°48.205 -999 21 13.6 102720 89
2006-06-08 05:42:48 51°23.405 2°48.193 -999 21 13.6 102720 89
2006-06-08 05:42:52 51°23.418 2°48.186 -999 21 13.6 102720 89
2006-06-08 05:42:57 51°23.435 2°48.176 -999 22 13.6 102720 89
2006-06-08 05:43:02 51°23.451 2°48.166 -999 20 13.6 102720 89
2006-06-08 05:43:07 51°23.467 2°48.156 -999 20 13.6 102720 89
2006-06-08 05:43:12 51°23.483 2°48.147 -999 20 13.6 102720 89
2006-06-08 05:43:17 51°23.5 2°48.137 -999 19 13.6 102720 89
2006-06-08 05:43:22 51°23.516 2°48.128 -999 22 13.6 102720 89
2006-06-08 05:43:27 51°23.532 2°48.117 -999 22 13.6 102720 89
2006-06-08 05:43:32 51°23.548 2°48.108 -999 21 13.6 102720 89
2006-06-08 05:43:36 51°23.561 2°48.1 -999 17 13.6 102720 89
2006-06-08 05:43:42 51°23.581 2°48.087 -999 21 13.6 102720 89
2006-06-08 05:43:47 51°23.597 2°48.078 -999 19 13.6 102720 89
2006-06-08 05:43:52 51°23.613 2°48.067 -999 21 13.5 102720 89
2006-06-08 05:43:55 51°23.622 2°48.061 -999 20 13.5 102720 89
2006-06-08 05:44:03 51°23.649 2°48.044 -999 21 13.6 102720 89
2006-06-08 05:44:07 51°23.662 2°48.036 -999 19 13.6 102720 89
2006-06-08 05:44:12 51°23.678 2°48.027 -999 20 13.6 102720 89
2006-06-08 05:44:16 51°23.691 2°48.019 -999 19 13.6 102720 89
2006-06-08 05:44:22 51°23.711 2°48.008 -999 21 13.6 102720 89
2006-06-08 05:44:27 51°23.727 2°47.999 -999 18 13.6 102720 89
2006-06-08 05:44:32 51°23.743 2°47.989 -999 20 13.6 102720 89
2006-06-08 05:44:36 51°23.757 2°47.982 -999 20 13.6 102720 89
2006-06-08 05:44:42 51°23.776 2°47.971 -999 21 13.6 102720 89
2006-06-08 05:44:48 51°23.796 2°47.96 -999 20 13.6 102720 89
2006-06-08 05:44:51 51°23.806 2°47.953 -999 20 13.5 102720 89
2006-06-08 05:44:57 51°23.825 2°47.941 -999 22 13.5 102720 89
2006-06-08 05:45:02 51°23.841 2°47.93 -999 20 13.5 102720 89
2006-06-08 05:45:08 51°23.86 2°47.918 -999 20 13.5 102720 89
2006-06-08 05:45:12 51°23.873 2°47.909 -999 21 13.5 102720 89
2006-06-08 05:45:16 51°23.886 2°47.9 -999 20 13.5 102720 89
2006-06-08 05:45:22 51°23.906 2°47.887 -999 20 13.5 102720 89
2006-06-08 05:45:27 51°23.922 2°47.876 -999 20 13.5 102720 89
2006-06-08 05:45:32 51°23.939 2°47.867 -999 22 13.5 102720 89
2006-06-08 05:45:35 51°23.949 2°47.861 -999 21 13.5 102720 89
2006-06-08 05:45:42 51°23.972 2°47.848 -999 21 13.5 102710 89
2006-06-08 05:45:47 51°23.988 2°47.839 -999 21 13.5 102710 89
2006-06-08 05:45:51 51°24.001 2°47.832 -999 22 13.5 102720 89
2006-06-08 05:45:56 51°24.018 2°47.823 -999 19 13.5 102720 89
2006-06-08 05:46:02 51°24.038 2°47.811 -999 19 13.5 102720 89
2006-06-08 05:46:07 51°24.054 2°47.802 -999 19 13.5 102720 89
2006-06-08 05:46:12 51°24.071 2°47.792 -999 19 13.5 102720 89
2006-06-08 05:46:18 51°24.09 2°47.781 -999 20 13.5 102720 89
2006-06-08 05:46:22 51°24.104 2°47.773 -999 19 13.5 102720 89
2006-06-08 05:46:27 51°24.12 2°47.763 -999 19 13.5 102720 89
2006-06-08 05:46:32 51°24.137 2°47.754 -999 21 13.5 102720 89
2006-06-08 05:46:38 51°24.156 2°47.742 -999 18 13.5 102720 89
2006-06-08 05:46:42 51°24.17 2°47.735 -999 21 13.5 102720 89
2006-06-08 05:46:47 51°24.186 2°47.725 -999 20 13.5 102720 89
2006-06-08 05:46:52 51°24.203 2°47.716 -999 22 13.5 102720 89
2006-06-08 05:46:57 51°24.219 2°47.707 -999 20 13.5 102720 89
2006-06-08 05:47:02 51°24.236 2°47.698 -999 20 13.5 102710 89
2006-06-08 05:47:07 51°24.253 2°47.689 -999 22 13.5 102710 89
2006-06-08 05:47:12 51°24.269 2°47.681 -999 21 13.5 102720 89
2006-06-08 05:47:17 51°24.286 2°47.671 -999 21 13.5 102720 89
2006-06-08 05:47:22 51°24.303 2°47.663 -999 22 13.5 102720 89
2006-06-08 05:47:27 51°24.32 2°47.653 -999 23 13.5 102720 89
2006-06-08 05:47:32 51°24.336 2°47.644 -999 21 13.5 102720 89
2006-06-08 05:47:38 51°24.356 2°47.634 -999 22 13.5 102720 89
2006-06-08 05:47:42 51°24.369 2°47.627 -999 22 13.5 102720 89
2006-06-08 05:47:47 51°24.386 2°47.618 -999 19 13.5 102720 89
2006-06-08 05:47:52 51°24.403 2°47.61 -999 21 13.5 102720 89
2006-06-08 05:47:55 51°24.413 2°47.604 -999 21 13.5 102720 89
2006-06-08 05:48:03 51°24.44 2°47.589 -999 21 13.5 102720 89
2006-06-08 05:48:07 51°24.453 2°47.582 -999 21 13.5 102720 89
2006-06-08 05:48:11 51°24.466 2°47.574 -999 21 13.5 102720 89
2006-06-08 05:48:16 51°24.483 2°47.563 -999 20 13.5 102720 89
2006-06-08 05:48:22 51°24.502 2°47.551 -999 21 13.5 102720 89
2006-06-08 05:48:28 51°24.522 2°47.538 -999 21 13.5 102720 89
2006-06-08 05:48:32 51°24.535 2°47.53 -999 20 13.5 102720 89
2006-06-08 05:48:37 51°24.551 2°47.519 -999 18 13.5 102720 89
2006-06-08 05:48:42 51°24.568 2°47.51 -999 20 13.5 102720 89
2006-06-08 05:48:47 51°24.585 2°47.5 -999 21 13.5 102720 89
2006-06-08 05:48:52 51°24.601 2°47.491 -999 20 13.5 102720 90
2006-06-08 05:48:58 51°24.621 2°47.48 -999 20 13.5 102720 90
2006-06-08 05:49:02 51°24.634 2°47.473 -999 22 13.5 102720 89
2006-06-08 05:49:07 51°24.651 2°47.464 -999 19 13.5 102720 89
2006-06-08 05:49:11 51°24.664 2°47.457 -999 21 13.5 102730 89
2006-06-08 05:49:17 51°24.683 2°47.445 -999 19 13.5 102730 89
2006-06-08 05:49:22 51°24.699 2°47.435 -999 21 13.5 102720 89
2006-06-08 05:49:28 51°24.719 2°47.423 -999 21 13.5 102720 89
2006-06-08 05:49:31 51°24.729 2°47.417 -999 22 13.5 102720 89
2006-06-08 05:49:37 51°24.749 2°47.406 -999 22 13.5 102720 89
2006-06-08 05:49:42 51°24.765 2°47.397 -999 23 13.5 102720 89
2006-06-08 05:49:47 51°24.781 2°47.387 -999 21 13.5 102720 89
2006-06-08 05:49:52 51°24.798 2°47.377 -999 21 13.5 102720 89
2006-06-08 05:49:56 51°24.811 2°47.369 -999 20 13.5 102720 89
2006-06-08 05:50:02 51°24.83 2°47.358 -999 22 13.5 102720 90
2006-06-08 05:50:07 51°24.846 2°47.349 -999 19 13.5 102720 90
2006-06-08 05:50:12 51°24.863 2°47.339 -999 21 13.5 102720 89
2006-06-08 05:50:18 51°24.883 2°47.328 -999 21 13.5 102720 89
2006-06-08 05:50:22 51°24.896 2°47.321 -999 19 13.5 102720 90
2006-06-08 05:50:27 51°24.912 2°47.312 -999 21 13.5 102720 90
2006-06-08 05:50:32 51°24.928 2°47.303 -999 19 13.5 102720 90
2006-06-08 05:50:36 51°24.941 2°47.296 -999 19 13.5 102720 90
2006-06-08 05:50:42 51°24.96 2°47.285 -999 21 13.5 102720 90
2006-06-08 05:50:47 51°24.977 2°47.277 -999 22 13.5 102720 90
2006-06-08 05:50:52 51°24.993 2°47.268 -999 22 13.5 102720 90
2006-06-08 05:50:55 51°25.003 2°47.264 -999 22 13.5 102720 90
2006-06-08 05:51:03 51°25.029 2°47.25 -999 22 13.5 102720 90
2006-06-08 05:51:07 51°25.042 2°47.243 -999 21 13.5 102720 90
2006-06-08 05:51:11 51°25.055 2°47.236 -999 21 13.5 102720 90
2006-06-08 05:51:18 51°25.078 2°47.223 -999 20 13.5 102720 90
2006-06-08 05:51:22 51°25.091 2°47.216 -999 22 13.5 102720 90
2006-06-08 05:51:27 51°25.107 2°47.206 -999 20 13.5 102720 90
2006-06-08 05:51:32 51°25.123 2°47.197 -999 21 13.6 102720 90
2006-06-08 05:51:36 51°25.136 2°47.19 -999 19 13.6 102720 90
2006-06-08 05:51:42 51°25.155 2°47.18 -999 18 13.6 102720 90
2006-06-08 05:51:47 51°25.171 2°47.171 -999 21 13.6 102720 90
2006-06-08 05:51:52 51°25.188 2°47.162 -999 20 13.6 102730 90
2006-06-08 05:51:57 51°25.204 2°47.154 -999 20 13.6 102730 90
2006-06-08 05:52:02 51°25.22 2°47.146 -999 20 13.6 102720 90
2006-06-08 05:52:08 51°25.24 2°47.137 -999 20 13.6 102720 90
2006-06-08 05:52:12 51°25.253 2°47.13 -999 21 13.6 102720 90
2006-06-08 05:52:16 51°25.266 2°47.123 -999 20 13.6 102720 90
2006-06-08 05:52:22 51°25.285 2°47.111 -999 20 13.6 102730 90
2006-06-08 05:52:28 51°25.305 2°47.1 -999 20 13.6 102730 90
2006-06-08 05:52:32 51°25.318 2°47.093 -999 19 13.6 102720 90
2006-06-08 05:52:38 51°25.337 2°47.082 -999 20 13.6 102720 90
2006-06-08 05:52:42 51°25.35 2°47.075 -999 19 13.6 102720 90
2006-06-08 05:52:47 51°25.366 2°47.066 -999 19 13.6 102720 90
2006-06-08 05:52:52 51°25.383 2°47.057 -999 18 13.6 102720 90
2006-06-08 05:52:55 51°25.392 2°47.052 -999 19 13.6 102720 90
2006-06-08 05:53:02 51°25.416 2°47.041 -999 19 13.6 102730 90
2006-06-08 05:53:07 51°25.432 2°47.033 -999 18 13.6 102730 90
2006-06-08 05:53:12 51°25.448 2°47.024 -999 19 13.6 102730 90
2006-06-08 05:53:16 51°25.461 2°47.018 -999 18 13.6 102730 90
2006-06-08 05:53:22 51°25.481 2°47.006 -999 18 13.6 102730 90
2006-06-08 05:53:27 51°25.497 2°46.997 -999 17 13.6 102730 90
2006-06-08 05:53:32 51°25.513 2°46.988 -999 19 13.6 102720 90
2006-06-08 05:53:38 51°25.532 2°46.977 -999 18 13.6 102720 90
2006-06-08 05:53:42 51°25.545 2°46.97 -999 20 13.6 102730 90
2006-06-08 05:53:46 51°25.558 2°46.962 -999 19 13.6 102730 90
2006-06-08 05:53:52 51°25.578 2°46.952 -999 17 13.6 102730 90
2006-06-08 05:53:56 51°25.59 2°46.944 -999 18 13.6 102730 90
2006-06-08 05:54:02 51°25.61 2°46.933 -999 18 13.6 102730 90
2006-06-08 05:54:08 51°25.629 2°46.922 -999 20 13.6 102730 90
2006-06-08 05:54:11 51°25.638 2°46.916 -999 19 13.6 102730 90
2006-06-08 05:54:16 51°25.655 2°46.907 -999 17 13.6 102730 90
2006-06-08 05:54:22 51°25.674 2°46.896 -999 20 13.6 102730 90
2006-06-08 05:54:28 51°25.693 2°46.884 -999 21 13.6 102730 90
2006-06-08 05:54:32 51°25.706 2°46.877 -999 21 13.6 102730 90
2006-06-08 05:54:38 51°25.725 2°46.866 -999 21 13.6 102730 90
2006-06-08 05:54:42 51°25.738 2°46.859 -999 19 13.6 102730 90
2006-06-08 05:54:48 51°25.757 2°46.849 -999 20 13.6 102730 90
2006-06-08 05:54:52 51°25.77 2°46.841 -999 20 13.6 102720 90
2006-06-08 05:54:56 51°25.783 2°46.834 -999 19 13.6 102720 90
2006-06-08 05:55:02 51°25.802 2°46.823 -999 21 13.6 102720 90
2006-06-08 05:55:07 51°25.818 2°46.814 -999 20 13.6 102720 90
2006-06-08 05:55:12 51°25.834 2°46.804 -999 19 13.6 102730 90
2006-06-08 05:55:17 51°25.85 2°46.795 -999 21 13.6 102730 90
2006-06-08 05:55:22 51°25.865 2°46.786 -999 20 13.6 102730 90
2006-06-08 05:55:27 51°25.881 2°46.777 -999 22 13.6 102730 90
2006-06-08 05:55:32 51°25.897 2°46.768 -999 22 13.6 102730 90
2006-06-08 05:55:38 51°25.917 2°46.758 -999 21 13.6 102730 90
2006-06-08 05:55:42 51°25.93 2°46.751 -999 21 13.6 102730 91
2006-06-08 05:55:47 51°25.946 2°46.741 -999 21 13.6 102730 91
2006-06-08 05:55:52 51°25.962 2°46.733 -999 23 13.6 102730 91
2006-06-08 05:55:58 51°25.981 2°46.722 -999 20 13.6 102730 91
2006-06-08 05:56:02 51°25.994 2°46.715 -999 22 13.6 102730 91
2006-06-08 05:56:08 51°26.014 2°46.703 -999 21 13.6 102730 91
2006-06-08 05:56:12 51°26.026 2°46.696 -999 22 13.6 102730 91
2006-06-08 05:56:17 51°26.042 2°46.686 -999 21 13.6 102730 91
2006-06-08 05:56:21 51°26.055 2°46.679 -999 22 13.6 102730 91
2006-06-08 05:56:27 51°26.074 2°46.667 -999 21 13.6 102730 91
2006-06-08 05:56:32 51°26.09 2°46.657 -999 21 13.6 102730 91
2006-06-08 05:56:36 51°26.103 2°46.649 -999 20 13.6 102730 91
2006-06-08 05:56:42 51°26.123 2°46.638 -999 19 13.5 102720 91
2006-06-08 05:56:47 51°26.139 2°46.63 -999 21 13.5 102720 91
2006-06-08 05:56:52 51°26.155 2°46.621 -999 22 13.5 102730 91
2006-06-08 05:56:57 51°26.172 2°46.612 -999 22 13.5 102730 91
2006-06-08 05:57:02 51°26.188 2°46.604 -999 21 13.5 102720 91
2006-06-08 05:57:07 51°26.204 2°46.594 -999 21 13.5 102720 91
2006-06-08 05:57:12 51°26.22 2°46.585 -999 20 13.5 102730 91
2006-06-08 05:57:17 51°26.236 2°46.576 -999 22 13.5 102730 91
2006-06-08 05:57:22 51°26.252 2°46.566 -999 20 13.5 102720 91
2006-06-08 05:57:27 51°26.268 2°46.556 -999 19 13.5 102720 91
2006-06-08 05:57:31 51°26.281 2°46.548 -999 20 13.5 102720 91
2006-06-08 05:57:37 51°26.301 2°46.536 -999 19 13.5 102720 91
2006-06-08 05:57:41 51°26.313 2°46.528 -999 21 13.5 102730 91
2006-06-08 05:57:47 51°26.333 2°46.517 -999 21 13.5 102730 91
2006-06-08 05:57:52 51°26.349 2°46.508 -999 19 13.5 102730 91
2006-06-08 05:57:56 51°26.362 2°46.5 -999 21 13.5 102730 91
2006-06-08 05:58:02 51°26.381 2°46.49 -999 20 13.5 102730 91
2006-06-08 05:58:07 51°26.398 2°46.48 -999 22 13.5 102730 91
2006-06-08 05:58:11 51°26.411 2°46.473 -999 21 13.5 102720 91
2006-06-08 05:58:17 51°26.43 2°46.462 -999 18 13.5 102720 91
2006-06-08 05:58:22 51°26.446 2°46.453 -999 22 13.5 102720 91
2006-06-08 05:58:27 51°26.462 2°46.444 -999 21 13.5 102720 91
2006-06-08 05:58:32 51°26.479 2°46.434 -999 19 13.5 102730 91
2006-06-08 05:58:36 51°26.492 2°46.427 -999 21 13.5 102730 91
2006-06-08 05:58:42 51°26.511 2°46.416 -999 18 13.5 102730 91
2006-06-08 05:58:47 51°26.527 2°46.407 -999 19 13.5 102730 91
2006-06-08 05:58:52 51°26.544 2°46.397 -999 19 13.5 102720 91
2006-06-08 05:58:57 51°26.56 2°46.388 -999 19 13.5 102720 91
2006-06-08 05:59:02 51°26.576 2°46.378 -999 20 13.5 102720 91
2006-06-08 05:59:07 51°26.592 2°46.368 -999 19 13.5 102720 91
2006-06-08 05:59:12 51°26.609 2°46.358 -999 20 13.5 102720 91
2006-06-08 05:59:16 51°26.622 2°46.35 -999 21 13.5 102720 91
2006-06-08 05:59:22 51°26.641 2°46.338 -999 18 13.5 102730 91
2006-06-08 05:59:27 51°26.658 2°46.329 -999 20 13.5 102730 91
2006-06-08 05:59:32 51°26.674 2°46.319 -999 19 13.5 102720 91
2006-06-08 05:59:35 51°26.684 2°46.313 -999 19 13.5 102720 91
2006-06-08 05:59:42 51°26.707 2°46.3 -999 21 13.5 102730 91
2006-06-08 05:59:47 51°26.723 2°46.291 -999 20 13.5 102730 91
2006-06-08 05:59:52 51°26.739 2°46.281 -999 20 13.4 102720 91
2006-06-08 05:59:56 51°26.752 2°46.274 -999 18 13.4 102720 91
2006-06-08 06:00:02 51°26.772 2°46.262 -999 22 13.4 102720 91
2006-06-08 06:00:07 51°26.788 2°46.253 -999 21 13.4 102720 91
2006-06-08 06:00:12 51°26.805 2°46.243 -999 17 13.4 102730 91
2006-06-08 06:00:17 51°26.821 2°46.233 -999 21 13.4 102730 91
2006-06-08 06:00:22 51°26.837 2°46.223 -999 20 13.4 102720 91
2006-06-08 06:00:27 51°26.854 2°46.213 -999 19 13.4 102720 91
2006-06-08 06:00:32 51°26.87 2°46.203 -999 20 13.4 102720 91
2006-06-08 06:00:36 51°26.883 2°46.196 -999 20 13.4 102720 91
2006-06-08 06:00:42 51°26.903 2°46.184 -999 22 13.4 102720 91
2006-06-08 06:00:47 51°26.919 2°46.175 -999 20 13.4 102720 91
2006-06-08 06:00:52 51°26.935 2°46.164 -999 19 13.4 102730 92
2006-06-08 06:00:56 51°26.949 2°46.157 -999 19 13.4 102730 92
2006-06-08 06:01:03 51°26.972 2°46.144 -999 21 13.4 102720 92
2006-06-08 06:01:08 51°26.988 2°46.134 -999 22 13.4 102720 92
2006-06-08 06:01:11 51°26.998 2°46.128 -999 20 13.4 102720 92
2006-06-08 06:01:17 51°27.018 2°46.117 -999 20 13.4 102720 92
2006-06-08 06:01:22 51°27.035 2°46.107 -999 20 13.4 102730 92
2006-06-08 06:01:27 51°27.051 2°46.097 -999 20 13.4 102730 92
2006-06-08 06:01:32 51°27.068 2°46.087 -999 20 13.4 102720 92
2006-06-08 06:01:36 51°27.081 2°46.079 -999 22 13.4 102720 92
2006-06-08 06:01:41 51°27.097 2°46.069 -999 17 13.4 102730 92
2006-06-08 06:01:47 51°27.117 2°46.056 -999 21 13.4 102730 92
2006-06-08 06:01:52 51°27.133 2°46.046 -999 22 13.4 102730 92
2006-06-08 06:01:56 51°27.146 2°46.037 -999 21 13.4 102730 92
2006-06-08 06:02:02 51°27.166 2°46.025 -999 22 13.4 102720 92
2006-06-08 06:02:07 51°27.183 2°46.015 -999 20 13.4 102720 92
2006-06-08 06:02:12 51°27.2 2°46.006 -999 21 13.4 102720 92
2006-06-08 06:02:17 51°27.216 2°45.996 -999 20 13.4 102720 92
2006-06-08 06:02:22 51°27.233 2°45.987 -999 23 13.4 102730 92
2006-06-08 06:02:27 51°27.249 2°45.978 -999 22 13.4 102730 92
2006-06-08 06:02:31 51°27.263 2°45.97 -999 23 13.4 102720 92
2006-06-08 06:02:36 51°27.279 2°45.96 -999 23 13.4 102720 92
2006-06-08 06:02:42 51°27.299 2°45.949 -999 21 13.4 102720 92
2006-06-08 06:02:47 51°27.316 2°45.94 -999 21 13.4 102720 92
2006-06-08 06:02:52 51°27.332 2°45.93 -999 22 13.4 102720 92
2006-06-08 06:02:57 51°27.349 2°45.92 -999 23 13.4 102720 92
2006-06-08 06:03:02 51°27.366 2°45.911 -999 21 13.4 102730 92
2006-06-08 06:03:07 51°27.382 2°45.901 -999 22 13.4 102730 92
2006-06-08 06:03:12 51°27.399 2°45.892 -999 22 13.4 102730 92
2006-06-08 06:03:17 51°27.415 2°45.882 -999 21 13.4 102730 92
2006-06-08 06:03:22 51°27.432 2°45.873 -999 23 13.4 102720 92
2006-06-08 06:03:27 51°27.449 2°45.863 -999 22 13.4 102720 92
2006-06-08 06:03:32 51°27.465 2°45.853 -999 22 13.4 102720 92
2006-06-08 06:03:36 51°27.478 2°45.845 -999 22 13.4 102720 92
2006-06-08 06:03:42 51°27.497 2°45.833 -999 21 13.4 102720 92
2006-06-08 06:03:47 51°27.514 2°45.823 -999 22 13.4 102720 92
2006-06-08 06:03:52 51°27.53 2°45.814 -999 21 13.4 102730 92
2006-06-08 06:03:57 51°27.546 2°45.804 -999 24 13.4 102730 92
2006-06-08 06:04:02 51°27.563 2°45.794 -999 21 13.4 102720 92
2006-06-08 06:04:07 51°27.579 2°45.785 -999 22 13.4 102720 92
2006-06-08 06:04:11 51°27.592 2°45.778 -999 22 13.4 102720 92
2006-06-08 06:04:17 51°27.612 2°45.766 -999 22 13.4 102720 92
2006-06-08 06:04:22 51°27.629 2°45.757 -999 22 13.4 102720 92
2006-06-08 06:04:27 51°27.645 2°45.747 -999 23 13.4 102720 92
2006-06-08 06:04:32 51°27.661 2°45.737 -999 20 13.4 102720 92
2006-06-08 06:04:37 51°27.678 2°45.727 -999 21 13.4 102720 92